Time;durP1;ratioP1;P1;durP2;ratioP2;P2;SDS_P1;SDS_P2;PMS_P1;PMS_P2;Temp;Humidity;BMP_temperature;BMP_pressure;BME280_temperature;BME280_humidity;BME280_pressure;Samples;Min_cycle;Max_cycle;Signal;HPM_P1;HPM_P2
2020/12/25 00:01:46;;;;;;;6.63;1.52;;;3.40;99.90;;;;;;5013913;28;20092;-93
2020/12/25 00:04:12;;;;;;;9.95;1.33;;;3.40;99.90;;;;;;5013766;28;20489;-92
2020/12/25 00:06:51;;;;;;;6.78;1.40;;;3.30;99.90;;;;;;4998308;28;20052;-93
2020/12/25 00:09:27;;;;;;;9.02;1.85;;;3.30;99.90;;;;;;5016962;28;20084;-92
2020/12/25 00:11:57;;;;;;;6.25;1.30;;;3.30;99.90;;;;;;5017169;28;20585;-93
2020/12/25 00:14:23;;;;;;;5.05;1.10;;;3.20;99.90;;;;;;5017338;28;20381;-93
2020/12/25 00:16:53;;;;;;;4.32;1.25;;;3.20;99.90;;;;;;5016962;28;20076;-92
2020/12/25 00:19:27;;;;;;;5.47;1.40;;;3.20;99.90;;;;;;5017248;28;20088;-93
2020/12/25 00:22:05;;;;;;;5.43;1.10;;;3.10;99.90;;;;;;5016738;28;20033;-95
2020/12/25 00:24:40;;;;;;;4.90;0.95;;;3.10;99.90;;;;;;5012267;28;20481;-92
2020/12/25 00:27:10;;;;;;;6.13;1.42;;;3.10;99.90;;;;;;5016659;28;20037;-92
2020/12/25 00:29:42;;;;;;;10.20;1.65;;;3.00;99.90;;;;;;5018097;28;20033;-90
2020/12/25 00:32:08;;;;;;;5.07;1.13;;;3.00;99.90;;;;;;5017639;28;20361;-91
2020/12/25 00:34:42;;;;;;;8.20;1.50;;;3.00;99.90;;;;;;5017341;28;20048;-91
2020/12/25 00:37:15;;;;;;;6.80;1.10;;;2.90;99.90;;;;;;5016784;28;20029;-91
2020/12/25 00:39:45;;;;;;;7.18;1.15;;;2.90;99.90;;;;;;5000500;28;20065;-91
2020/12/25 00:42:20;;;;;;;7.07;1.30;;;2.90;99.90;;;;;;5000165;28;20038;-91
2020/12/25 00:44:51;;;;;;;5.22;1.20;;;2.90;99.90;;;;;;5016391;28;20061;-93
2020/12/25 00:47:26;;;;;;;5.13;1.05;;;2.90;99.90;;;;;;5017331;28;20037;-93
2020/12/25 00:49:53;;;;;;;5.50;1.00;;;2.80;99.90;;;;;;5017029;28;20049;-93
2020/12/25 00:52:27;;;;;;;7.50;1.02;;;2.80;99.90;;;;;;5016025;28;20029;-92
2020/12/25 00:54:56;;;;;;;8.23;1.50;;;2.80;99.90;;;;;;5016658;28;20049;-92
2020/12/25 00:57:27;;;;;;;3.47;0.90;;;2.80;99.90;;;;;;5016095;28;20038;-93
2020/12/25 01:00:07;;;;;;;5.93;1.23;;;2.70;99.90;;;;;;5016408;28;20038;-93
2020/12/25 01:02:34;;;;;;;4.47;1.15;;;2.80;99.90;;;;;;5015987;28;20026;-92
2020/12/25 01:05:00;;;;;;;6.78;1.15;;;2.70;99.90;;;;;;5016316;28;20026;-93
2020/12/25 01:07:26;;;;;;;7.28;1.30;;;2.70;99.90;;;;;;5016349;28;20413;-92
2020/12/25 01:09:55;;;;;;;6.15;1.30;;;2.70;99.90;;;;;;5015937;28;20034;-92
2020/12/25 01:12:22;;;;;;;5.80;1.15;;;2.70;99.90;;;;;;5016309;28;20037;-91
2020/12/25 01:14:48;;;;;;;6.13;1.10;;;2.70;99.90;;;;;;5015702;28;20505;-91
2020/12/25 01:17:18;;;;;;;4.55;1.02;;;2.70;99.90;;;;;;4999869;28;20029;-91
2020/12/25 01:19:44;;;;;;;6.55;1.33;;;2.70;99.90;;;;;;5015810;28;20504;-91
2020/12/25 01:22:13;;;;;;;5.20;1.15;;;2.70;99.90;;;;;;5016107;28;20053;-92
2020/12/25 01:24:39;;;;;;;4.93;1.30;;;2.70;99.90;;;;;;5004123;28;20117;-92
2020/12/25 01:27:05;;;;;;;7.75;1.38;;;2.70;99.90;;;;;;5010349;28;20125;-93
2020/12/25 01:29:33;;;;;;;5.82;1.27;;;2.60;99.90;;;;;;5015312;28;20032;-94
2020/12/25 01:32:03;;;;;;;5.28;1.00;;;2.60;99.90;;;;;;5012823;28;20030;-92
2020/12/25 01:34:29;;;;;;;3.42;1.13;;;2.60;99.90;;;;;;4995766;28;20027;-92
2020/12/25 01:36:56;;;;;;;10.77;1.10;;;2.60;99.90;;;;;;4996155;28;20097;-93
2020/12/25 01:39:30;;;;;;;6.18;1.08;;;2.60;99.90;;;;;;5012759;28;20030;-93
2020/12/25 01:41:55;;;;;;;4.53;1.10;;;2.60;99.90;;;;;;4996041;28;20053;-92
2020/12/25 01:44:24;;;;;;;3.85;0.95;;;2.60;99.90;;;;;;4995071;28;20049;-94
2020/12/25 01:46:52;;;;;;;5.97;0.93;;;2.50;99.90;;;;;;4996709;28;20076;-93
2020/12/25 01:49:19;;;;;;;7.60;0.95;;;2.50;99.90;;;;;;4997953;28;20027;-93
2020/12/25 01:51:45;;;;;;;7.03;1.17;;;2.50;99.90;;;;;;4998679;28;20029;-92
2020/12/25 01:54:15;;;;;;;4.18;0.70;;;2.50;99.90;;;;;;4999168;28;20034;-94
2020/12/25 01:56:43;;;;;;;6.75;1.35;;;2.50;99.90;;;;;;5015007;28;20117;-93
2020/12/25 01:59:09;;;;;;;4.97;1.13;;;2.60;99.90;;;;;;4999093;28;20485;-95
2020/12/25 02:01:35;;;;;;;9.35;1.38;;;2.60;99.90;;;;;;4998693;28;20034;-93
2020/12/25 02:04:02;;;;;;;5.55;1.23;;;2.60;99.90;;;;;;5008270;28;20018;-96
2020/12/25 02:06:37;;;;;;;6.30;1.05;;;2.60;99.90;;;;;;5013682;28;20044;-95
2020/12/25 02:09:11;;;;;;;4.78;1.00;;;2.60;99.90;;;;;;5027589;28;20026;-96
2020/12/25 02:11:40;;;;;;;4.65;1.00;;;2.60;99.90;;;;;;5017959;28;20081;-93
2020/12/25 02:14:12;;;;;;;5.72;1.13;;;2.50;99.90;;;;;;5034793;28;20042;-94
2020/12/25 02:16:45;;;;;;;4.30;1.33;;;2.50;99.90;;;;;;5025406;28;20049;-94
2020/12/25 02:19:12;;;;;;;5.40;1.33;;;2.50;99.90;;;;;;4994449;28;20030;-94
2020/12/25 02:21:40;;;;;;;9.10;1.73;;;2.50;99.90;;;;;;5015730;28;20022;-94
2020/12/25 02:24:09;;;;;;;5.30;1.10;;;2.50;99.90;;;;;;4999525;28;20120;-94
2020/12/25 02:26:38;;;;;;;7.18;1.10;;;2.40;99.90;;;;;;4998656;28;20045;-94
2020/12/25 02:29:07;;;;;;;5.45;1.15;;;2.40;99.90;;;;;;4998608;28;20021;-95
2020/12/25 02:31:37;;;;;;;5.60;0.90;;;2.50;99.90;;;;;;4981300;28;20033;-95
2020/12/25 02:34:08;;;;;;;5.90;1.42;;;2.50;99.90;;;;;;4998923;28;20107;-94
2020/12/25 02:36:34;;;;;;;5.90;0.90;;;2.60;99.90;;;;;;4979041;28;20030;-94
2020/12/25 02:39:00;;;;;;;4.85;0.93;;;2.60;99.90;;;;;;4979453;28;20031;-94
2020/12/25 02:41:25;;;;;;;8.43;1.38;;;2.60;99.90;;;;;;4978907;28;20080;-96
2020/12/25 02:43:53;;;;;;;6.50;1.05;;;2.60;99.90;;;;;;4978469;28;20042;-94
2020/12/25 02:46:20;;;;;;;5.18;0.90;;;2.70;99.90;;;;;;4982079;28;20038;-94
2020/12/25 02:48:51;;;;;;;5.78;0.95;;;2.70;99.90;;;;;;4998122;28;20028;-94
2020/12/25 02:51:20;;;;;;;6.95;0.90;;;2.80;99.90;;;;;;4997213;28;20125;-94
2020/12/25 02:53:54;;;;;;;6.68;1.13;;;2.80;99.90;;;;;;5015210;28;20061;-92
2020/12/25 02:56:20;;;;;;;3.80;0.75;;;2.90;99.90;;;;;;5014377;28;20029;-94
2020/12/25 02:58:49;;;;;;;5.55;1.20;;;2.90;99.90;;;;;;5015717;28;20050;-93
2020/12/25 03:01:21;;;;;;;4.70;0.90;;;2.90;99.90;;;;;;4997823;28;20026;-93
2020/12/25 03:03:47;;;;;;;5.45;1.00;;;2.90;99.90;;;;;;4996961;28;20336;-92
2020/12/25 03:06:14;;;;;;;4.88;1.00;;;2.90;99.90;;;;;;4995949;28;20034;-92
2020/12/25 03:08:42;;;;;;;9.75;2.72;;;2.90;99.90;;;;;;5012894;28;20124;-92
2020/12/25 03:11:08;;;;;;;9.02;1.40;;;2.80;99.90;;;;;;4996576;28;20114;-93
2020/12/25 03:13:36;;;;;;;4.40;0.90;;;2.70;99.90;;;;;;4979909;28;20129;-93
2020/12/25 03:16:03;;;;;;;3.00;0.90;;;2.60;99.90;;;;;;5014249;28;20026;-94
2020/12/25 03:18:30;;;;;;;3.58;0.73;;;2.60;99.90;;;;;;5014387;28;20038;-93
2020/12/25 03:20:55;;;;;;;4.65;0.90;;;2.60;99.90;;;;;;4997409;28;20112;-93
2020/12/25 03:23:21;;;;;;;3.17;0.82;;;2.50;99.90;;;;;;5015174;28;20034;-93
2020/12/25 03:25:46;;;;;;;7.05;1.00;;;2.50;99.90;;;;;;4997837;28;20034;-93
2020/12/25 03:28:12;;;;;;;4.18;0.88;;;2.50;99.90;;;;;;4997273;28;20034;-93
2020/12/25 03:30:38;;;;;;;4.05;0.77;;;2.50;99.90;;;;;;4981312;28;20399;-92
2020/12/25 03:33:04;;;;;;;3.28;0.82;;;2.50;99.90;;;;;;4996732;28;20042;-93
2020/12/25 03:35:29;;;;;;;4.55;0.60;;;2.50;99.90;;;;;;4997132;28;20467;-93
2020/12/25 03:37:56;;;;;;;3.45;0.63;;;2.50;99.90;;;;;;4981177;28;20026;-94
2020/12/25 03:40:22;;;;;;;7.65;0.98;;;2.60;99.90;;;;;;4997525;28;20117;-92
2020/12/25 03:42:49;;;;;;;4.20;0.80;;;2.70;99.90;;;;;;5016431;28;20065;-92
2020/12/25 03:45:15;;;;;;;4.32;0.95;;;2.80;99.90;;;;;;4984427;28;20144;-92
2020/12/25 03:47:40;;;;;;;4.72;0.68;;;2.80;99.90;;;;;;5001282;28;20026;-92
2020/12/25 03:50:06;;;;;;;4.90;0.52;;;2.90;99.90;;;;;;5018207;28;20076;-94
2020/12/25 03:52:33;;;;;;;3.47;0.80;;;2.90;99.90;;;;;;5017347;28;20141;-93
2020/12/25 03:55:02;;;;;;;2.22;0.60;;;2.90;99.90;;;;;;5017980;28;20080;-93
2020/12/25 03:57:28;;;;;;;2.58;0.60;;;3.00;99.90;;;;;;5017642;28;20029;-91
2020/12/25 03:59:54;;;;;;;2.78;0.50;;;3.00;99.90;;;;;;5018602;28;20377;-92
2020/12/25 04:02:19;;;;;;;2.63;0.70;;;3.00;99.90;;;;;;5018228;28;20058;-94
2020/12/25 04:04:45;;;;;;;4.43;0.70;;;3.00;99.90;;;;;;5018370;28;20034;-93
2020/12/25 04:07:10;;;;;;;5.63;0.73;;;2.90;99.90;;;;;;5017085;28;20169;-93
2020/12/25 04:09:36;;;;;;;4.13;0.60;;;2.90;99.90;;;;;;5016979;28;20037;-93
2020/12/25 04:12:04;;;;;;;3.88;0.55;;;2.90;99.90;;;;;;5017458;28;20091;-92
2020/12/25 04:14:30;;;;;;;4.22;0.45;;;2.80;99.90;;;;;;5018404;28;20385;-93
2020/12/25 04:16:58;;;;;;;2.03;0.50;;;2.70;99.90;;;;;;5033521;28;20033;-92
2020/12/25 04:19:24;;;;;;;2.83;0.70;;;2.70;99.90;;;;;;5017280;28;20022;-93
2020/12/25 04:21:51;;;;;;;4.50;0.50;;;2.60;99.90;;;;;;5018352;28;20037;-92
2020/12/25 04:24:20;;;;;;;3.50;0.47;;;2.60;99.90;;;;;;5018214;28;20033;-93
2020/12/25 04:26:51;;;;;;;3.47;0.47;;;2.60;99.90;;;;;;5017363;28;20021;-92
2020/12/25 04:29:17;;;;;;;5.25;0.35;;;2.50;99.90;;;;;;5017050;28;20030;-93
2020/12/25 04:31:45;;;;;;;2.60;0.35;;;2.50;99.90;;;;;;5016991;28;20033;-93
2020/12/25 04:34:11;;;;;;;2.30;0.40;;;2.40;99.90;;;;;;5000428;28;20038;-93
2020/12/25 04:36:38;;;;;;;2.03;0.40;;;2.40;99.90;;;;;;5016517;28;20030;-93
2020/12/25 04:39:06;;;;;;;0.90;0.20;;;2.40;99.90;;;;;;5016652;28;20084;-93
2020/12/25 04:41:33;;;;;;;3.22;0.38;;;2.40;99.90;;;;;;5016558;28;20026;-93
2020/12/25 04:44:00;;;;;;;1.15;0.40;;;2.30;99.90;;;;;;5016658;28;20049;-92
2020/12/25 04:46:26;;;;;;;0.77;0.20;;;2.30;99.90;;;;;;5016803;28;20030;-94
2020/12/25 04:48:52;;;;;;;1.17;0.22;;;2.20;99.90;;;;;;5016694;28;20033;-93
2020/12/25 04:51:18;;;;;;;1.73;0.30;;;2.20;99.90;;;;;;5017594;28;20046;-93
2020/12/25 04:53:50;;;;;;;3.78;0.40;;;2.20;99.90;;;;;;4999198;28;20037;-94
2020/12/25 04:56:20;;;;;;;1.20;0.22;;;2.30;99.90;;;;;;5015596;28;20124;-93
2020/12/25 04:58:54;;;;;;;2.22;0.30;;;2.30;99.90;;;;;;5016515;28;20046;-92
2020/12/25 05:01:20;;;;;;;1.15;0.30;;;2.30;99.90;;;;;;5016258;28;20033;-92
2020/12/25 05:03:46;;;;;;;3.35;0.57;;;2.30;99.90;;;;;;5016454;28;20103;-93
2020/12/25 05:06:17;;;;;;;1.05;0.30;;;2.30;99.90;;;;;;5016177;28;20089;-94
2020/12/25 05:08:50;;;;;;;1.80;0.20;;;2.40;99.90;;;;;;5032516;28;20053;-93
2020/12/25 05:11:18;;;;;;;4.80;0.38;;;2.40;99.90;;;;;;5015867;28;20053;-92
2020/12/25 05:13:51;;;;;;;1.45;0.22;;;2.30;99.90;;;;;;4999367;28;20045;-91
2020/12/25 05:16:21;;;;;;;1.40;0.20;;;2.30;99.90;;;;;;5015910;28;20033;-93
2020/12/25 05:18:54;;;;;;;3.08;0.40;;;2.30;99.90;;;;;;5015951;28;20069;-93
2020/12/25 05:21:24;;;;;;;2.38;0.50;;;2.30;99.90;;;;;;5015269;28;20025;-92
2020/12/25 05:23:56;;;;;;;2.97;0.30;;;2.30;99.90;;;;;;5017152;28;20413;-92
2020/12/25 05:26:22;;;;;;;0.80;0.30;;;2.40;99.90;;;;;;5015667;28;20065;-93
2020/12/25 05:28:50;;;;;;;1.48;0.30;;;2.40;99.90;;;;;;5015164;28;20033;-94
2020/12/25 05:31:20;;;;;;;2.10;0.30;;;2.50;99.90;;;;;;5015776;28;20030;-92
2020/12/25 05:33:49;;;;;;;2.45;0.40;;;2.50;99.90;;;;;;5015692;28;20041;-93
2020/12/25 05:36:21;;;;;;;0.70;0.10;;;2.50;99.90;;;;;;5016384;28;20030;-93
2020/12/25 05:38:50;;;;;;;0.82;0.32;;;2.40;99.90;;;;;;5015709;28;20041;-91
2020/12/25 05:41:16;;;;;;;1.90;0.22;;;2.30;99.90;;;;;;4999061;28;20091;-92
2020/12/25 05:43:47;;;;;;;2.33;0.30;;;2.30;99.90;;;;;;5015265;28;20038;-93
2020/12/25 05:46:13;;;;;;;2.35;0.50;;;2.20;99.90;;;;;;5016409;28;20026;-92
2020/12/25 05:48:39;;;;;;;1.05;0.30;;;2.30;99.90;;;;;;5015374;28;20421;-92
2020/12/25 05:51:12;;;;;;;0.98;0.20;;;2.30;99.90;;;;;;5014809;28;20128;-91
2020/12/25 05:53:42;;;;;;;2.00;0.28;;;2.40;99.90;;;;;;5014949;28;20030;-91
2020/12/25 05:56:09;;;;;;;3.25;0.30;;;2.40;99.90;;;;;;5031428;28;20050;-93
2020/12/25 05:58:41;;;;;;;1.60;0.43;;;2.50;99.90;;;;;;5015270;28;20040;-93
2020/12/25 06:01:08;;;;;;;3.53;0.52;;;2.50;99.90;;;;;;5015094;28;20049;-93
2020/12/25 06:03:39;;;;;;;4.45;0.57;;;2.50;99.90;;;;;;5015288;28;20429;-92
2020/12/25 06:06:13;;;;;;;3.00;0.73;;;2.40;99.90;;;;;;5015060;28;20342;-92
2020/12/25 06:08:57;;;;;;;1.25;0.38;;;2.50;99.90;;;;;;5015131;28;20092;-93
2020/12/25 06:11:29;;;;;;;2.88;0.20;;;2.40;99.90;;;;;;5014935;28;20125;-95
2020/12/25 06:13:58;;;;;;;3.67;0.50;;;2.40;99.90;;;;;;5015977;28;20034;-94
2020/12/25 06:16:24;;;;;;;6.28;0.50;;;2.40;99.90;;;;;;5015101;28;20030;-93
2020/12/25 06:19:16;;;;;;;1.35;0.50;;;2.40;99.90;;;;;;5015201;28;20034;-93
2020/12/25 06:22:02;;;;;;;7.65;0.60;;;2.40;99.90;;;;;;5015963;28;20083;-92
2020/12/25 06:24:34;;;;;;;6.43;2.45;;;2.40;99.90;;;;;;5014619;28;20042;-94
2020/12/25 06:27:06;;;;;;;5.03;1.80;;;2.50;99.90;;;;;;5015108;28;20458;-93
2020/12/25 06:29:34;;;;;;;2.85;1.13;;;2.60;99.90;;;;;;5014800;28;20031;-93
2020/12/25 06:32:07;;;;;;;5.63;0.80;;;2.60;99.90;;;;;;5015408;28;20030;-92
2020/12/25 06:34:44;;;;;;;3.97;0.70;;;2.60;99.90;;;;;;5014311;28;20030;-93
2020/12/25 06:37:16;;;;;;;5.43;0.50;;;2.60;99.90;;;;;;5014442;28;20030;-92
2020/12/25 06:39:54;;;;;;;2.88;0.70;;;2.60;99.90;;;;;;5014884;28;20032;-91
2020/12/25 06:42:32;;;;;;;3.38;0.70;;;2.60;99.90;;;;;;5015195;28;20113;-90
2020/12/25 06:45:05;;;;;;;5.75;0.70;;;2.70;99.90;;;;;;5015077;28;20044;-94
2020/12/25 06:47:36;;;;;;;4.70;0.70;;;2.70;99.90;;;;;;5015536;28;20030;-92
2020/12/25 06:50:13;;;;;;;6.68;0.80;;;2.70;99.90;;;;;;5016070;28;20038;-92
2020/12/25 06:53:07;;;;;;;5.05;0.98;;;2.80;99.90;;;;;;5035271;28;20099;-92
2020/12/25 06:55:43;;;;;;;4.72;0.50;;;2.70;99.90;;;;;;5032345;28;20046;-94
2020/12/25 06:58:10;;;;;;;4.35;1.25;;;2.80;99.90;;;;;;5029462;28;20021;-92
2020/12/25 07:00:39;;;;;;;3.90;0.80;;;2.70;99.90;;;;;;5014725;28;20124;-93
2020/12/25 07:03:29;;;;;;;3.13;0.70;;;2.70;99.90;;;;;;5014540;28;20061;-93
2020/12/25 07:05:57;;;;;;;6.35;0.80;;;2.70;99.90;;;;;;5011849;28;20030;-93
2020/12/25 07:08:29;;;;;;;4.00;0.60;;;2.80;99.90;;;;;;5014233;28;20113;-94
2020/12/25 07:11:06;;;;;;;4.93;0.77;;;2.70;99.90;;;;;;5015315;28;20026;-93
2020/12/25 07:13:32;;;;;;;6.63;0.85;;;2.80;99.90;;;;;;5013953;28;20038;-93
2020/12/25 07:16:01;;;;;;;7.47;0.73;;;2.80;99.90;;;;;;5013868;28;20100;-93
2020/12/25 07:18:27;;;;;;;6.28;0.88;;;2.80;99.90;;;;;;5012818;28;20036;-92
2020/12/25 07:21:11;;;;;;;;;;;;;;;;;;;;;
2020/12/25 07:23:54;;;;;;;4.03;0.50;;;2.80;99.90;;;;;;5015016;28;20025;-91
2020/12/25 07:26:24;;;;;;;6.38;0.73;;;2.70;99.90;;;;;;5009375;28;20044;-93
2020/12/25 07:29:11;;;;;;;3.72;0.90;;;2.60;99.90;;;;;;5014024;28;20034;-92
2020/12/25 07:31:47;;;;;;;5.80;0.80;;;2.60;99.90;;;;;;4998146;28;20038;-93
2020/12/25 07:34:25;;;;;;;5.90;0.80;;;2.50;99.90;;;;;;5013618;28;20477;-94
2020/12/25 07:37:01;;;;;;;4.65;0.63;;;2.50;99.90;;;;;;5013859;28;20034;-93
2020/12/25 07:39:31;;;;;;;6.18;0.70;;;2.40;99.90;;;;;;5014059;28;20037;-92
2020/12/25 07:42:01;;;;;;;6.35;0.90;;;2.40;99.90;;;;;;5013487;28;20033;-94
2020/12/25 07:44:26;;;;;;;2.33;0.95;;;2.40;99.90;;;;;;5013649;28;20045;-93
2020/12/25 07:46:52;;;;;;;6.57;0.73;;;2.30;99.90;;;;;;5013082;28;20460;-93
2020/12/25 07:49:28;;;;;;;4.85;0.80;;;2.30;99.90;;;;;;5012458;28;20577;-93
2020/12/25 07:51:55;;;;;;;3.20;0.50;;;2.30;99.90;;;;;;5013900;28;20116;-93
2020/12/25 07:54:27;;;;;;;6.40;0.70;;;2.30;99.90;;;;;;5012760;28;20113;-92
2020/12/25 07:56:56;;;;;;;7.40;0.95;;;2.20;99.90;;;;;;5013056;28;20493;-92
2020/12/25 07:59:25;;;;;;;5.22;0.60;;;2.20;99.90;;;;;;5013469;28;20018;-93
2020/12/25 08:01:59;;;;;;;6.47;0.75;;;2.20;99.90;;;;;;4997363;28;20030;-94
2020/12/25 08:04:25;;;;;;;3.50;0.52;;;2.20;99.90;;;;;;4997031;28;20038;-93
2020/12/25 08:06:51;;;;;;;7.28;0.75;;;2.20;99.90;;;;;;4997297;28;20033;-95
2020/12/25 08:09:19;;;;;;;6.00;1.10;;;2.20;99.90;;;;;;4998009;28;20060;-93
2020/12/25 08:11:46;;;;;;;7.50;1.40;;;2.20;99.90;;;;;;5014949;28;20466;-94
2020/12/25 08:14:50;;;;;;;7.80;0.88;;;2.30;99.90;;;;;;5014470;28;20046;-95
2020/12/25 08:17:31;;;;;;;3.92;0.77;;;2.30;99.90;;;;;;5014357;28;20421;-95
2020/12/25 08:20:00;;;;;;;6.82;1.23;;;2.20;99.90;;;;;;5011047;28;20041;-95
2020/12/25 08:22:27;;;;;;;4.57;0.65;;;2.20;99.90;;;;;;4996243;28;20388;-94
2020/12/25 08:24:58;;;;;;;5.78;0.80;;;2.30;99.90;;;;;;5011330;28;20041;-95
2020/12/25 08:27:32;;;;;;;3.58;0.60;;;2.30;99.90;;;;;;5013537;28;20117;-95
2020/12/25 08:30:08;;;;;;;3.50;0.57;;;2.30;99.90;;;;;;5015894;28;20021;-94
2020/12/25 08:32:34;;;;;;;4.40;0.70;;;2.40;99.90;;;;;;5016718;28;20026;-93
2020/12/25 08:35:17;;;;;;;2.17;0.55;;;2.50;99.90;;;;;;5016712;28;20076;-93
2020/12/25 08:38:07;;;;;;;5.45;0.70;;;2.60;99.90;;;;;;5017286;28;20121;-95
2020/12/25 08:40:36;;;;;;;4.00;0.70;;;2.70;99.90;;;;;;5016730;28;20042;-91
2020/12/25 08:43:16;;;;;;;8.27;1.10;;;2.80;99.90;;;;;;5018553;28;20037;-94
2020/12/25 08:45:58;;;;;;;6.85;0.88;;;2.80;99.90;;;;;;5018099;28;20038;-92
2020/12/25 08:48:33;;;;;;;5.28;0.70;;;3.00;99.90;;;;;;5018775;28;20022;-93
2020/12/25 08:51:24;;;;;;;5.78;1.08;;;3.10;99.90;;;;;;5016534;28;20402;-92
2020/12/25 08:53:57;;;;;;;4.13;1.23;;;3.20;99.90;;;;;;4995618;28;20462;-91
2020/12/25 08:56:25;;;;;;;7.97;1.33;;;3.30;99.90;;;;;;4997684;28;20041;-91
2020/12/25 08:59:01;;;;;;;5.80;1.15;;;3.30;99.90;;;;;;5015941;28;20026;-91
2020/12/25 09:01:29;;;;;;;5.25;0.88;;;3.40;99.90;;;;;;5015348;28;20037;-92
2020/12/25 09:04:01;;;;;;;4.90;1.25;;;3.50;99.90;;;;;;4999677;28;20034;-91
2020/12/25 09:06:28;;;;;;;5.25;1.42;;;3.60;99.90;;;;;;5016675;28;20026;-92
2020/12/25 09:08:58;;;;;;;2.92;0.88;;;3.80;99.90;;;;;;5014366;28;20038;-92
2020/12/25 09:11:25;;;;;;;5.57;1.17;;;3.90;99.90;;;;;;4994636;28;20046;-92
2020/12/25 09:13:52;;;;;;;5.50;1.65;;;4.30;99.90;;;;;;4989299;28;20355;-91
2020/12/25 09:16:18;;;;;;;7.28;1.20;;;4.40;99.90;;;;;;5013416;28;20027;-91
2020/12/25 09:18:45;;;;;;;8.65;1.02;;;4.80;99.90;;;;;;5012626;28;20096;-91
2020/12/25 09:21:14;;;;;;;3.80;0.80;;;5.70;99.90;;;;;;5015246;28;20411;-91
2020/12/25 09:23:47;;;;;;;6.60;0.90;;;7.00;99.90;;;;;;5017389;28;20069;-91
2020/12/25 09:26:19;;;;;;;5.28;0.80;;;8.10;99.90;;;;;;4990676;28;20085;-91
2020/12/25 09:28:49;;;;;;;3.20;1.45;;;9.10;99.90;;;;;;5002418;28;20034;-90
2020/12/25 09:31:18;;;;;;;8.93;1.45;;;9.70;99.90;;;;;;5005588;28;20096;-91
2020/12/25 09:33:43;;;;;;;6.68;1.20;;;10.10;99.90;;;;;;5012403;28;20045;-91
2020/12/25 09:36:10;;;;;;;5.68;1.17;;;10.40;99.90;;;;;;5005980;28;20022;-90
2020/12/25 09:38:43;;;;;;;6.95;1.27;;;10.50;99.90;;;;;;5008654;28;20489;-90
2020/12/25 09:41:29;;;;;;;6.90;1.08;;;10.70;99.90;;;;;;5010243;28;20458;-90
2020/12/25 09:43:54;;;;;;;7.18;1.00;;;10.90;99.90;;;;;;5012995;28;20033;-91
2020/12/25 09:46:24;;;;;;;4.43;1.00;;;11.20;99.90;;;;;;4995896;28;20037;-91
2020/12/25 09:48:50;;;;;;;6.63;1.05;;;11.40;99.90;;;;;;4995762;28;20034;-90
2020/12/25 09:51:24;;;;;;;6.03;1.25;;;11.70;99.90;;;;;;4994852;28;20097;-91
2020/12/25 09:53:50;;;;;;;4.22;0.85;;;11.80;99.90;;;;;;4997033;28;20113;-92
2020/12/25 09:56:16;;;;;;;7.75;1.30;;;11.90;99.70;;;;;;4996854;28;20062;-90
2020/12/25 09:58:42;;;;;;;6.25;1.40;;;11.70;99.90;;;;;;4995625;28;20370;-90
2020/12/25 10:01:08;;;;;;;6.85;1.15;;;11.50;99.90;;;;;;4995472;28;20034;-90
2020/12/25 10:03:33;;;;;;;5.00;1.30;;;11.30;99.90;;;;;;4997116;28;20034;-91
2020/12/25 10:06:02;;;;;;;7.68;1.38;;;11.50;99.90;;;;;;4986886;28;20129;-92
2020/12/25 10:08:28;;;;;;;6.15;1.30;;;11.90;99.90;;;;;;5029405;28;20092;-93
2020/12/25 10:10:55;;;;;;;4.78;1.05;;;12.10;99.60;;;;;;5009577;28;20462;-93
2020/12/25 10:13:20;;;;;;;7.45;1.27;;;12.50;99.10;;;;;;5015546;28;20042;-93
2020/12/25 10:15:47;;;;;;;3.88;0.95;;;12.80;98.90;;;;;;5016104;28;20067;-91
2020/12/25 10:18:13;;;;;;;5.72;1.30;;;13.20;98.20;;;;;;4997241;28;20042;-92
2020/12/25 10:20:39;;;;;;;6.15;1.00;;;12.80;96.60;;;;;;5014185;28;20030;-92
2020/12/25 10:23:04;;;;;;;8.75;1.20;;;11.60;97.10;;;;;;5014964;28;20029;-92
2020/12/25 10:25:30;;;;;;;2.35;0.70;;;10.40;98.00;;;;;;5031207;28;20417;-92
2020/12/25 10:27:55;;;;;;;7.10;1.08;;;9.40;99.10;;;;;;5014460;28;20034;-93
2020/12/25 10:30:21;;;;;;;3.30;0.68;;;8.50;98.90;;;;;;5010747;28;20467;-93
2020/12/25 10:32:46;;;;;;;4.25;0.63;;;7.90;99.90;;;;;;5022019;28;20034;-95
2020/12/25 10:35:12;;;;;;;5.78;0.90;;;7.50;99.90;;;;;;5016338;28;20101;-93
2020/12/25 10:37:38;;;;;;;3.78;0.63;;;7.40;99.90;;;;;;5014018;28;20034;-94
2020/12/25 10:40:05;;;;;;;3.70;0.77;;;7.60;99.90;;;;;;5008803;28;20027;-94
2020/12/25 10:42:31;;;;;;;3.75;0.80;;;8.20;99.90;;;;;;5016952;28;20037;-94
2020/12/25 10:44:57;;;;;;;3.67;0.70;;;8.40;99.90;;;;;;5006394;28;20034;-95
2020/12/25 10:47:22;;;;;;;4.47;1.02;;;8.30;99.90;;;;;;4995859;28;20061;-93
2020/12/25 10:49:48;;;;;;;2.22;0.50;;;8.20;99.80;;;;;;4978949;28;20145;-93
2020/12/25 10:52:14;;;;;;;2.92;0.60;;;8.40;99.20;;;;;;4978504;28;20035;-94
2020/12/25 10:54:39;;;;;;;3.42;0.70;;;8.40;99.40;;;;;;4994774;28;20065;-93
2020/12/25 10:57:05;;;;;;;4.53;0.55;;;8.50;99.80;;;;;;4994120;28;20462;-94
2020/12/25 10:59:31;;;;;;;2.85;0.60;;;9.40;99.60;;;;;;4978732;28;20106;-95
2020/12/25 11:01:58;;;;;;;2.63;0.70;;;10.40;97.80;;;;;;4996125;28;20086;-95
2020/12/25 11:04:24;;;;;;;1.40;0.40;;;11.10;97.30;;;;;;4978847;28;20041;-93
2020/12/25 11:06:50;;;;;;;2.58;0.60;;;11.70;96.60;;;;;;5004441;28;20030;-95
2020/12/25 11:09:16;;;;;;;2.95;0.80;;;12.20;95.20;;;;;;5014111;28;20026;-94
2020/12/25 11:11:42;;;;;;;2.88;0.45;;;12.80;94.30;;;;;;5013937;28;20029;-94
2020/12/25 11:14:12;;;;;;;3.47;0.70;;;13.10;93.00;;;;;;5013611;28;20113;-95
2020/12/25 11:16:39;;;;;;;1.98;0.30;;;13.40;92.40;;;;;;5013476;28;20053;-95
2020/12/25 11:19:11;;;;;;;1.58;0.50;;;13.50;89.60;;;;;;5014376;28;20030;-95
2020/12/25 11:21:37;;;;;;;2.65;0.40;;;13.10;88.00;;;;;;5015164;28;20026;-95
2020/12/25 11:24:05;;;;;;;2.42;0.50;;;12.30;89.50;;;;;;5013458;28;20121;-95
2020/12/25 11:26:36;;;;;;;2.63;0.52;;;12.30;89.20;;;;;;5011257;28;20038;-94
2020/12/25 11:29:07;;;;;;;2.85;0.40;;;12.60;88.20;;;;;;5014304;28;20022;-95
2020/12/25 11:31:35;;;;;;;2.08;0.40;;;12.90;88.70;;;;;;5014528;28;20046;-96
2020/12/25 11:34:02;;;;;;;2.85;0.60;;;13.20;86.00;;;;;;5014999;28;20088;-96
2020/12/25 11:36:34;;;;;;;2.53;0.50;;;13.40;83.80;;;;;;5014344;28;20125;-95
2020/12/25 11:39:04;;;;;;;3.33;0.73;;;13.40;83.00;;;;;;5011422;28;20014;-95
2020/12/25 11:41:30;;;;;;;1.98;0.50;;;13.50;84.40;;;;;;4995722;28;20049;-95
2020/12/25 11:43:56;;;;;;;1.88;0.63;;;13.70;83.10;;;;;;5013206;28;20038;-95
2020/12/25 11:46:29;;;;;;;3.90;0.85;;;13.00;83.90;;;;;;5014005;28;20405;-95
2020/12/25 11:49:06;;;;;;;4.68;1.25;;;11.90;85.60;;;;;;5014241;28;20030;-94
2020/12/25 11:51:38;;;;;;;3.75;0.70;;;10.90;88.80;;;;;;5015513;28;20382;-96
2020/12/25 11:54:11;;;;;;;6.18;1.05;;;9.90;90.70;;;;;;5015045;28;20096;-95
2020/12/25 11:56:46;;;;;;;2.72;0.70;;;9.10;92.30;;;;;;5014308;28;20061;-96
2020/12/25 11:59:17;;;;;;;4.70;0.82;;;8.50;93.60;;;;;;5014876;28;20026;-95
2020/12/25 12:01:45;;;;;;;4.68;0.80;;;8.10;94.60;;;;;;4998720;28;20038;-93
2020/12/25 12:04:22;;;;;;;4.50;0.80;;;7.70;95.20;;;;;;5017710;28;20030;-93
2020/12/25 12:06:58;;;;;;;5.28;0.80;;;7.40;95.70;;;;;;5016607;28;20095;-93
2020/12/25 12:09:34;;;;;;;8.05;0.80;;;7.20;96.40;;;;;;5011295;28;20351;-94
2020/12/25 12:12:03;;;;;;;4.28;0.82;;;7.10;96.90;;;;;;4998354;28;20033;-94
2020/12/25 12:14:35;;;;;;;3.55;0.90;;;7.00;97.20;;;;;;4999492;28;20037;-94
2020/12/25 12:17:01;;;;;;;3.53;0.70;;;7.00;97.60;;;;;;4999896;28;20037;-94
2020/12/25 12:19:39;;;;;;;4.63;1.25;;;6.90;97.90;;;;;;4999751;28;20030;-95
2020/12/25 12:22:06;;;;;;;3.03;0.40;;;7.00;98.10;;;;;;5015567;28;20022;-95
2020/12/25 12:24:35;;;;;;;1.88;0.70;;;6.90;98.20;;;;;;5000106;28;20034;-93
2020/12/25 12:27:06;;;;;;;5.95;0.82;;;6.90;98.50;;;;;;4997675;28;20121;-94
2020/12/25 12:29:32;;;;;;;3.90;0.88;;;6.90;98.40;;;;;;5007362;28;20086;-95
2020/12/25 12:32:00;;;;;;;4.00;0.80;;;6.80;98.70;;;;;;5015188;28;20097;-94
2020/12/25 12:34:26;;;;;;;5.53;1.00;;;6.80;98.80;;;;;;5013830;28;20030;-94
2020/12/25 12:36:52;;;;;;;5.32;0.70;;;6.70;98.90;;;;;;5002006;28;20046;-93
2020/12/25 12:39:21;;;;;;;4.15;0.80;;;6.70;99.10;;;;;;5002540;28;20030;-94
2020/12/25 12:41:50;;;;;;;5.25;0.98;;;6.60;99.00;;;;;;5010525;28;20022;-95
2020/12/25 12:44:17;;;;;;;5.82;1.65;;;6.60;99.10;;;;;;5017310;28;20026;-93
2020/12/25 12:46:49;;;;;;;3.38;0.50;;;6.60;99.30;;;;;;5004831;28;20034;-93
2020/12/25 12:49:16;;;;;;;3.75;0.75;;;6.70;99.40;;;;;;4995639;28;20054;-93
2020/12/25 12:51:43;;;;;;;3.60;0.75;;;6.80;99.50;;;;;;5014187;28;20132;-93
2020/12/25 12:54:12;;;;;;;4.70;0.70;;;6.80;99.40;;;;;;5004940;28;20034;-93
2020/12/25 12:56:38;;;;;;;3.85;0.50;;;6.90;99.50;;;;;;5009240;28;20034;-92
2020/12/25 12:59:10;;;;;;;6.50;0.70;;;6.80;99.30;;;;;;4999637;28;20141;-92
2020/12/25 13:01:41;;;;;;;6.07;0.90;;;6.80;99.30;;;;;;4996397;28;20034;-92
2020/12/25 13:04:20;;;;;;;7.10;1.20;;;6.80;99.40;;;;;;5004923;28;20038;-95
2020/12/25 13:06:49;;;;;;;3.90;0.73;;;6.80;98.80;;;;;;5014824;28;20124;-94
2020/12/25 13:09:34;;;;;;;6.38;0.70;;;6.80;98.90;;;;;;5010772;28;20073;-94
2020/12/25 13:12:00;;;;;;;4.70;0.68;;;6.80;98.70;;;;;;5017961;28;20337;-95